MDPC Airport Information

Runway Information
Runway 08 Length 10171 ft width 148 ft
Elevation 43 ft Threshold 0 ft Heading 74
Runway 26 Length 10171 ft Width 148 ft
Elevation 37 ft Threshold 0 ft Heading 254
Runway 09 Length 10171 ft width 148 ft
Elevation 47 ft Threshold 0 ft Heading 83
Runway 27 Length 10171 ft Width 148 ft
Elevation 36 ft Threshold 0 ft Heading 263
Airport Frequencies
Type A/D Name APP Frequency 119.7 MHZ
Type APP Name LAS AMERIC Frequency 119.3 MHZ
Type ATIS Name Frequency 132.85 MHZ
Type DLV Name DELIVERY Frequency 121.65 MHZ
Type GND Name GROUND Frequency 121.9 MHZ
Type TWR Name TWR Frequency 118.8 MHZ
Airport Navaids
Type NDB Name Punta Cana Frequency 425 KHZ
Type VOR-DME Name Punta Cana Frequency 112700 KHZ
Airport Weather Information & NOTAM
ADDS - METARS form results

(1131 UTC 17 July 2018)
 
METAR text: MDPC 171100Z 08006KT 9999 FEW018 BKN300 27/25 Q1019 NOSIG
Conditions at: MDPC (PUNTA CANA , DO) observed 1100 UTC 17 July 2018
Temperature: 27.0°C (81°F)
Dewpoint: 25.0°C (77°F) [RH = 89%]
Pressure (altimeter): 30.09 inches Hg (1019.0 mb)
Winds: from the E (80 degrees) at 7 MPH (6 knots; 3.1 m/s)
Visibility: 6 or more miles (10+ km)
Ceiling: 30000 feet AGL
Clouds: few clouds at 1800 feet AGL
broken clouds at 30000 feet AGL
Weather: no significant weather observed at this time